Time;durP1;ratioP1;P1;durP2;ratioP2;P2;SDS_P1;SDS_P2;PMS_P1;PMS_P2;Temp;Humidity;BMP_temperature;BMP_pressure;BME280_temperature;BME280_humidity;BME280_pressure;Samples;Min_cycle;Max_cycle;Signal;HPM_P1;HPM_P2
2023/07/21 00:09:48;;;;;;;1.75;1.00;;;16.60;1.00;;;;;;20857470;28;20092;-45
2023/07/21 00:19:51;;;;;;;2.53;1.13;;;16.50;1.00;;;;;;20853949;28;20025;-44
2023/07/21 00:29:52;;;;;;;2.35;1.20;;;16.40;1.00;;;;;;20857659;28;20037;-44
2023/07/21 00:39:53;;;;;;;3.17;1.13;;;16.30;1.00;;;;;;20855558;28;20048;-44
2023/07/21 00:49:56;;;;;;;2.22;1.60;;;16.10;1.00;;;;;;20853816;28;20508;-44
2023/07/21 00:59:57;;;;;;;2.65;1.98;;;16.10;1.00;;;;;;20847971;28;21529;-44
2023/07/21 01:09:59;;;;;;;3.05;1.73;;;16.00;1.00;;;;;;20858224;28;20051;-44
2023/07/21 01:20:04;;;;;;;3.05;1.75;;;15.90;1.00;;;;;;20850566;28;20048;-44
2023/07/21 01:30:10;;;;;;;4.43;2.63;;;15.90;1.00;;;;;;20857689;28;20307;-44
2023/07/21 01:40:13;;;;;;;5.00;3.30;;;15.70;1.00;;;;;;20864651;28;20095;-43
2023/07/21 01:50:17;;;;;;;4.60;3.03;;;15.70;1.00;;;;;;20867399;28;20044;-43
2023/07/21 02:00:20;;;;;;;6.30;3.50;;;15.70;1.00;;;;;;20865890;28;20467;-43
2023/07/21 02:10:21;;;;;;;4.47;3.40;;;15.80;1.00;;;;;;20869567;28;20411;-43
2023/07/21 02:20:22;;;;;;;5.40;4.13;;;15.70;1.00;;;;;;20866511;28;20048;-43
2023/07/21 02:30:23;;;;;;;7.65;5.03;;;15.60;1.00;;;;;;20867506;28;20052;-44
2023/07/21 02:40:24;;;;;;;7.07;4.72;;;15.60;1.00;;;;;;20868685;28;20047;-42
2023/07/21 02:50:28;;;;;;;7.28;5.68;;;15.50;1.00;;;;;;20866746;28;20405;-42
2023/07/21 03:00:29;;;;;;;7.43;5.80;;;15.50;1.00;;;;;;20867003;28;20040;-42
2023/07/21 03:10:30;;;;;;;7.60;6.60;;;15.50;1.00;;;;;;20867547;28;20032;-42
2023/07/21 03:20:31;;;;;;;10.02;6.80;;;15.50;1.00;;;;;;20864562;28;20044;-42
2023/07/21 03:30:32;;;;;;;9.45;7.35;;;15.50;1.00;;;;;;20878372;28;20025;-43
2023/07/21 03:40:33;;;;;;;9.23;7.00;;;15.40;1.00;;;;;;20866318;28;20512;-43
2023/07/21 03:50:34;;;;;;;8.10;6.90;;;15.30;1.00;;;;;;20861382;28;20045;-43
2023/07/21 04:00:39;;;;;;;8.93;6.75;;;15.10;1.00;;;;;;20863564;28;20036;-42
2023/07/21 04:10:41;;;;;;;8.57;6.93;;;15.00;1.00;;;;;;20863061;28;21000;-42
2023/07/21 04:20:42;;;;;;;9.60;7.30;;;14.90;1.00;;;;;;20861555;28;20033;-42
2023/07/21 04:30:43;;;;;;;12.93;9.43;;;14.80;1.00;;;;;;20853326;28;20032;-42
2023/07/21 04:40:44;;;;;;;13.43;10.02;;;15.00;59.60;;;;;;20866681;28;20412;-42
2023/07/21 04:50:51;;;;;;;12.95;9.95;;;15.10;99.90;;;;;;20859134;28;20325;-42
2023/07/21 05:00:54;;;;;;;12.98;10.52;;;15.10;99.90;;;;;;20858921;28;20064;-42
2023/07/21 05:10:55;;;;;;;14.50;11.10;;;15.20;99.90;;;;;;20851875;28;20043;-42
2023/07/21 05:20:56;;;;;;;15.80;12.00;;;15.10;99.90;;;;;;20844798;28;21293;-42
2023/07/21 05:30:57;;;;;;;11.98;9.23;;;15.20;99.90;;;;;;20856849;28;20052;-42
2023/07/21 05:40:58;;;;;;;11.20;8.80;;;15.40;99.90;;;;;;20852284;28;20055;-42
2023/07/21 05:51:00;;;;;;;9.15;7.40;;;15.50;99.90;;;;;;20826609;28;20408;-42
2023/07/21 06:01:01;;;;;;;8.27;5.70;;;15.70;99.90;;;;;;20842632;28;20412;-43
2023/07/21 06:11:02;;;;;;;5.88;4.20;;;15.90;99.90;;;;;;20845095;28;20036;-42
2023/07/21 06:21:04;;;;;;;5.50;3.90;;;16.10;46.50;;;;;;20844030;28;21689;-42
2023/07/21 06:31:05;;;;;;;5.97;3.97;;;16.40;1.00;;;;;;20868726;28;20041;-42
2023/07/21 06:41:06;;;;;;;5.05;3.53;;;16.60;1.00;;;;;;20865267;28;20040;-42
2023/07/21 06:51:07;;;;;;;3.53;2.20;;;16.70;1.00;;;;;;20857017;28;20039;-42
2023/07/21 07:01:09;;;;;;;3.00;2.08;;;16.80;1.00;;;;;;20850954;28;20052;-42
2023/07/21 07:11:11;;;;;;;4.05;2.65;;;16.80;1.00;;;;;;20851304;28;20046;-42
2023/07/21 07:21:12;;;;;;;2.33;1.63;;;16.80;1.00;;;;;;20848199;28;20037;-42
2023/07/21 07:31:13;;;;;;;3.35;1.80;;;16.80;1.00;;;;;;20858379;28;20037;-42
2023/07/21 07:41:15;;;;;;;3.40;2.60;;;17.00;1.00;;;;;;20847899;28;20037;-42
2023/07/21 07:51:16;;;;;;;4.35;3.10;;;17.10;1.00;;;;;;20846015;28;20384;-42
2023/07/21 08:01:17;;;;;;;5.05;3.72;;;17.20;1.00;;;;;;20853275;28;20048;-42
2023/07/21 08:11:18;;;;;;;3.47;2.40;;;17.50;1.00;;;;;;20855741;28;20045;-42
2023/07/21 08:21:24;;;;;;;6.05;3.30;;;17.60;1.00;;;;;;20843812;28;20476;-42
2023/07/21 08:31:25;;;;;;;5.38;3.30;;;17.70;1.00;;;;;;20851110;28;20595;-42
2023/07/21 08:41:26;;;;;;;6.80;4.63;;;17.90;1.00;;;;;;20852136;28;20045;-42
2023/07/21 08:51:27;;;;;;;2.67;1.40;;;18.00;1.00;;;;;;20852957;28;20045;-42
2023/07/21 09:01:28;;;;;;;3.38;1.52;;;18.50;1.00;;;;;;20851250;28;20551;-42
2023/07/21 09:11:34;;;;;;;3.83;1.50;;;18.70;1.00;;;;;;20853236;28;20044;-42
2023/07/21 09:21:36;;;;;;;2.80;1.60;;;18.60;1.00;;;;;;20848383;28;20048;-42
2023/07/21 09:31:38;;;;;;;2.92;1.23;;;19.20;1.00;;;;;;20856022;28;20040;-42
2023/07/21 09:41:40;;;;;;;3.10;1.90;;;19.70;1.00;;;;;;20856875;28;20051;-42
2023/07/21 09:51:43;;;;;;;2.95;2.22;;;19.90;1.00;;;;;;20877669;28;20040;-42
2023/07/21 10:01:45;;;;;;;2.40;1.63;;;20.40;1.00;;;;;;20892766;28;20329;-42
2023/07/21 10:11:46;;;;;;;3.03;2.47;;;20.60;1.00;;;;;;20895753;28;20029;-42
2023/07/21 10:21:51;;;;;;;2.20;1.60;;;20.80;1.00;;;;;;20878654;28;20036;-43
2023/07/21 10:31:57;;;;;;;2.10;1.50;;;21.00;1.00;;;;;;20877320;28;20033;-42
2023/07/21 10:42:01;;;;;;;2.45;1.50;;;21.50;1.00;;;;;;20860884;28;20401;-42
2023/07/21 10:52:03;;;;;;;2.65;1.30;;;21.40;1.00;;;;;;20865241;28;20037;-42
2023/07/21 11:02:06;;;;;;;6.07;3.85;;;20.80;1.00;;;;;;20873097;28;20051;-42
2023/07/21 11:12:08;;;;;;;10.18;7.40;;;19.40;1.00;;;;;;20855771;28;20041;-43
2023/07/21 11:22:09;;;;;;;3.35;2.22;;;18.30;1.00;;;;;;20879062;28;20044;-43
2023/07/21 11:32:19;;;;;;;4.68;2.30;;;17.90;1.00;;;;;;20867473;28;20037;-43
2023/07/21 11:42:20;;;;;;;3.08;2.20;;;17.70;1.00;;;;;;20863265;28;20044;-43
2023/07/21 11:52:24;;;;;;;3.08;2.40;;;16.70;1.00;;;;;;20864320;28;20041;-43
2023/07/21 12:02:25;;;;;;;5.22;3.55;;;16.30;13.20;;;;;;20853398;28;20441;-44
2023/07/21 12:12:26;;;;;;;5.63;3.45;;;16.50;52.00;;;;;;20863900;28;20059;-44
2023/07/21 12:22:27;;;;;;;3.25;2.78;;;17.00;1.00;;;;;;20861940;28;20385;-44
2023/07/21 12:32:28;;;;;;;3.28;2.72;;;17.30;1.00;;;;;;20861834;28;20044;-44
2023/07/21 12:42:29;;;;;;;4.35;3.13;;;17.20;1.00;;;;;;20860512;28;20056;-44
2023/07/21 12:52:30;;;;;;;4.43;2.90;;;17.30;1.00;;;;;;20853101;28;20041;-44
2023/07/21 13:02:32;;;;;;;5.88;3.25;;;17.20;1.00;;;;;;20862492;28;20189;-44
2023/07/21 13:12:34;;;;;;;6.22;4.80;;;17.30;1.00;;;;;;20865954;28;20501;-44
2023/07/21 13:22:35;;;;;;;5.47;4.30;;;17.90;1.00;;;;;;20875042;28;20045;-43
2023/07/21 13:32:36;;;;;;;7.43;5.40;;;18.40;1.00;;;;;;20870914;28;20029;-43
2023/07/21 13:42:37;;;;;;;8.23;5.68;;;18.80;1.00;;;;;;20879142;28;20041;-43
2023/07/21 13:52:38;;;;;;;7.97;5.28;;;19.10;1.00;;;;;;20880848;28;20310;-43
2023/07/21 14:02:39;;;;;;;7.45;5.22;;;19.60;1.00;;;;;;20885395;28;20543;-43
2023/07/21 14:12:42;;;;;;;8.82;5.85;;;20.10;1.00;;;;;;20870901;28;20412;-43
2023/07/21 14:22:43;;;;;;;8.52;6.03;;;20.20;1.00;;;;;;20867612;28;20040;-43
2023/07/21 14:32:44;;;;;;;9.40;6.32;;;20.10;1.00;;;;;;20864519;28;20037;-43
2023/07/21 14:42:45;;;;;;;8.88;5.55;;;20.30;1.00;;;;;;20861336;28;21572;-43
2023/07/21 14:52:46;;;;;;;9.13;5.80;;;20.40;1.00;;;;;;20863324;28;20033;-44
2023/07/21 15:02:51;;;;;;;8.20;6.05;;;20.50;1.00;;;;;;20866980;28;20494;-44
2023/07/21 15:12:52;;;;;;;9.55;5.80;;;20.60;1.00;;;;;;20862094;28;20633;-44
2023/07/21 15:22:54;;;;;;;8.32;5.53;;;20.40;1.00;;;;;;20870019;28;20051;-44
2023/07/21 15:32:55;;;;;;;10.07;5.80;;;20.40;1.00;;;;;;20861701;28;20496;-44
2023/07/21 15:42:56;;;;;;;11.95;7.32;;;20.00;1.00;;;;;;20855971;28;20041;-44
2023/07/21 15:52:57;;;;;;;11.27;7.72;;;19.50;1.00;;;;;;20866229;28;20047;-44
2023/07/21 16:03:01;;;;;;;9.25;6.60;;;19.70;1.00;;;;;;20857830;28;20132;-44
2023/07/21 16:13:02;;;;;;;6.05;4.28;;;19.60;1.00;;;;;;20845733;28;20481;-44
2023/07/21 16:23:04;;;;;;;4.38;2.97;;;19.60;1.00;;;;;;20885475;28;20494;-44
2023/07/21 16:33:05;;;;;;;7.40;2.38;;;19.60;1.00;;;;;;20881766;28;20037;-45
2023/07/21 16:43:06;;;;;;;6.75;2.63;;;19.60;1.00;;;;;;20873396;28;20071;-44
2023/07/21 16:53:07;;;;;;;3.28;2.22;;;19.40;1.00;;;;;;20872403;28;20036;-44
2023/07/21 17:03:08;;;;;;;5.63;3.03;;;19.30;1.00;;;;;;20866553;28;20297;-44
2023/07/21 17:13:10;;;;;;;5.95;3.00;;;19.20;1.00;;;;;;20863831;28;20040;-44
2023/07/21 17:23:11;;;;;;;6.00;2.63;;;19.10;1.00;;;;;;20870231;28;20067;-44
2023/07/21 17:33:12;;;;;;;6.30;2.95;;;18.90;1.00;;;;;;20882494;28;20189;-44
2023/07/21 17:43:13;;;;;;;5.88;3.08;;;18.80;1.00;;;;;;20869090;28;20045;-44
2023/07/21 17:53:15;;;;;;;5.80;3.17;;;18.70;1.00;;;;;;20876087;28;20037;-44
2023/07/21 18:03:16;;;;;;;6.00;3.17;;;18.50;1.00;;;;;;20870420;28;20492;-44
2023/07/21 18:13:23;;;;;;;6.55;2.85;;;18.30;1.00;;;;;;20871523;28;20468;-44
2023/07/21 18:23:25;;;;;;;4.88;3.35;;;18.10;1.00;;;;;;20885785;28;20041;-44
2023/07/21 18:33:25;;;;;;;7.88;3.85;;;18.00;1.00;;;;;;20887974;28;20032;-44
2023/07/21 18:43:27;;;;;;;9.13;4.07;;;18.00;1.00;;;;;;20892077;28;20044;-44
2023/07/21 18:53:28;;;;;;;7.03;3.85;;;18.00;1.00;;;;;;20861257;28;20037;-44
2023/07/21 19:03:29;;;;;;;8.85;4.53;;;17.80;1.00;;;;;;20872151;28;20738;-44
2023/07/21 19:13:30;;;;;;;7.75;5.03;;;17.80;1.00;;;;;;20871408;28;20146;-44
2023/07/21 19:23:32;;;;;;;8.32;5.22;;;17.70;1.00;;;;;;20870461;28;20508;-44
2023/07/21 19:33:34;;;;;;;8.85;6.32;;;17.70;1.00;;;;;;20868845;28;20033;-44
2023/07/21 19:43:35;;;;;;;11.38;6.93;;;17.10;1.00;;;;;;20869967;28;20052;-44
2023/07/21 19:53:36;;;;;;;11.25;6.32;;;16.20;1.00;;;;;;20857068;28;20491;-44
2023/07/21 20:03:37;;;;;;;10.18;5.55;;;15.60;12.00;;;;;;20851569;28;20404;-44
2023/07/21 20:13:38;;;;;;;6.43;3.80;;;15.40;61.40;;;;;;20858103;28;20040;-44
2023/07/21 20:23:39;;;;;;;4.65;2.53;;;15.20;1.00;;;;;;20853054;28;20492;-45
2023/07/21 20:33:40;;;;;;;4.20;2.20;;;15.00;1.00;;;;;;20851415;28;20044;-44
2023/07/21 20:43:41;;;;;;;3.67;2.30;;;14.90;1.00;;;;;;20859107;28;20045;-44
2023/07/21 20:53:42;;;;;;;4.30;2.05;;;14.80;1.00;;;;;;20878088;28;20040;-44
2023/07/21 21:03:43;;;;;;;4.38;2.22;;;14.90;1.00;;;;;;20889102;28;20583;-44
2023/07/21 21:13:44;;;;;;;4.80;2.50;;;14.80;13.10;;;;;;20887197;28;20191;-44
2023/07/21 21:23:45;;;;;;;5.30;2.95;;;14.80;36.00;;;;;;20869839;28;20361;-44
2023/07/21 21:33:46;;;;;;;5.78;3.42;;;14.80;62.40;;;;;;20873697;28;20033;-44
2023/07/21 21:43:47;;;;;;;8.02;4.50;;;14.80;76.20;;;;;;20855481;28;20040;-44
2023/07/21 21:53:48;;;;;;;9.13;5.18;;;14.70;76.70;;;;;;20871807;28;20033;-44
2023/07/21 22:03:50;;;;;;;12.32;6.28;;;14.70;77.10;;;;;;20867465;28;20036;-44
2023/07/21 22:13:51;;;;;;;9.55;6.32;;;14.80;82.30;;;;;;20876647;28;20490;-44
2023/07/21 22:23:52;;;;;;;11.55;7.00;;;14.80;93.10;;;;;;20879976;28;20135;-44
2023/07/21 22:33:53;;;;;;;12.70;7.72;;;14.80;94.60;;;;;;20865440;28;20372;-44
2023/07/21 22:43:57;;;;;;;11.82;7.72;;;14.70;90.40;;;;;;20869740;28;20052;-44
2023/07/21 22:53:58;;;;;;;13.13;8.18;;;14.70;83.60;;;;;;20871458;28;20466;-44
2023/07/21 23:03:59;;;;;;;13.80;8.45;;;14.70;86.20;;;;;;20872221;28;20040;-43
2023/07/21 23:14:00;;;;;;;16.15;9.73;;;14.60;91.80;;;;;;20869685;28;20040;-44
2023/07/21 23:24:03;;;;;;;18.65;10.90;;;14.70;97.20;;;;;;20868767;28;20412;-44
2023/07/21 23:34:04;;;;;;;18.95;11.63;;;14.60;97.20;;;;;;20875738;28;20053;-44
2023/07/21 23:44:07;;;;;;;17.85;10.73;;;14.50;98.40;;;;;;20870031;28;20045;-44
2023/07/21 23:54:08;;;;;;;19.00;11.65;;;14.50;99.90;;;;;;20868679;28;20502;-44
